createdAt,value
2023-02-27T00:02:31.610Z,3.20
2023-02-27T00:05:58.777Z,3.60
2023-02-27T00:09:27.531Z,3.50
2023-02-27T00:12:54.680Z,3.50
2023-02-27T00:16:22.234Z,3.30
2023-02-27T00:19:49.608Z,2.90
2023-02-27T00:23:17.116Z,2.70
2023-02-27T00:26:44.239Z,2.80
2023-02-27T00:30:16.383Z,2.60
2023-02-27T00:33:43.507Z,2.40
2023-02-27T00:37:11.138Z,2.90
2023-02-27T00:40:38.741Z,3.10
2023-02-27T00:44:06.117Z,2.80
2023-02-27T00:47:33.405Z,2.50
2023-02-27T00:51:01.110Z,3.00
2023-02-27T00:54:31.788Z,2.80
2023-02-27T00:57:59.285Z,3.00
2023-02-27T01:01:27.194Z,2.90
2023-02-27T01:04:57.071Z,2.30
2023-02-27T01:08:24.557Z,2.70
2023-02-27T01:11:51.876Z,2.20
2023-02-27T01:15:19.234Z,2.70
2023-02-27T01:18:46.859Z,2.30
2023-02-27T01:22:16.681Z,2.40
2023-02-27T01:25:44.242Z,2.30
2023-02-27T01:29:31.562Z,2.80
2023-02-27T01:33:00.137Z,2.30
2023-02-27T01:36:29.207Z,2.90
2023-02-27T01:39:56.803Z,2.90
2023-02-27T01:44:31.047Z,2.70
2023-02-27T01:48:04.198Z,2.60
2023-02-27T01:51:39.356Z,2.70
2023-02-27T01:55:08.721Z,3.30
2023-02-27T01:58:36.004Z,3.80
2023-02-27T02:02:06.547Z,4.60
2023-02-27T02:05:34.819Z,4.30
2023-02-27T02:09:03.354Z,3.70
2023-02-27T02:12:34.867Z,3.30
2023-02-27T02:16:16.096Z,3.20
2023-02-27T02:20:28.787Z,3.10
2023-02-27T02:24:20.048Z,3.30
2023-02-27T02:28:01.798Z,2.90
2023-02-27T02:32:00.635Z,2.70
2023-02-27T02:36:12.477Z,3.00
2023-02-27T02:40:17.810Z,2.90
2023-02-27T02:43:55.954Z,2.70
2023-02-27T02:47:32.640Z,2.80
2023-02-27T02:51:06.149Z,2.50
2023-02-27T02:54:41.167Z,2.70
2023-02-27T02:58:16.549Z,2.80
2023-02-27T03:01:49.784Z,3.00
2023-02-27T03:05:24.212Z,2.60
2023-02-27T03:08:58.911Z,3.20
2023-02-27T03:12:29.897Z,2.90
2023-02-27T03:16:02.570Z,2.80
2023-02-27T03:19:34.171Z,2.90
2023-02-27T03:23:06.170Z,3.30
2023-02-27T03:26:37.723Z,3.20
2023-02-27T03:30:10.698Z,2.90
2023-02-27T03:33:40.193Z,3.20
2023-02-27T03:37:14.348Z,3.00
2023-02-27T03:40:47.720Z,2.70
2023-02-27T03:44:25.404Z,3.10
2023-02-27T03:47:52.918Z,3.50
2023-02-27T03:51:22.237Z,3.20
2023-02-27T03:54:54.604Z,3.40
2023-02-27T03:58:21.127Z,3.30
2023-02-27T04:01:48.535Z,3.00
2023-02-27T04:05:15.150Z,3.00
2023-02-27T04:09:01.682Z,2.80
2023-02-27T04:12:46.055Z,2.80
2023-02-27T04:16:46.195Z,2.80
2023-02-27T04:20:24.349Z,2.80
2023-02-27T04:23:58.966Z,3.30
2023-02-27T04:27:33.597Z,3.10
2023-02-27T04:31:13.430Z,3.00
2023-02-27T04:34:44.965Z,3.50
2023-02-27T04:38:21.117Z,3.30
2023-02-27T04:41:51.900Z,3.00
2023-02-27T04:45:23.467Z,4.00
2023-02-27T04:48:55.611Z,3.20
2023-02-27T04:52:26.661Z,3.30
2023-02-27T04:55:57.830Z,2.80
2023-02-27T04:59:30.304Z,3.50
2023-02-27T05:03:01.808Z,3.20
2023-02-27T05:06:32.950Z,4.20
2023-02-27T05:10:04.533Z,3.40
2023-02-27T05:13:36.017Z,3.40
2023-02-27T05:17:09.698Z,3.50
2023-02-27T05:20:44.319Z,2.80
2023-02-27T05:24:19.965Z,3.20
2023-02-27T05:27:50.683Z,3.10
2023-02-27T05:31:25.528Z,3.00
2023-02-27T05:34:58.706Z,3.10
2023-02-27T05:38:31.771Z,3.50
2023-02-27T05:42:03.401Z,3.70
2023-02-27T05:45:34.965Z,4.60
2023-02-27T05:49:07.514Z,4.30
2023-02-27T05:52:36.178Z,5.00
2023-02-27T05:56:06.640Z,4.10
2023-02-27T05:59:39.222Z,4.40
2023-02-27T06:03:06.647Z,4.10
2023-02-27T06:06:34.034Z,3.90
2023-02-27T06:10:00.905Z,4.50
2023-02-27T06:13:28.045Z,4.50
2023-02-27T06:16:55.224Z,4.80
2023-02-27T06:20:22.253Z,5.40
2023-02-27T06:23:48.806Z,8.00
2023-02-27T06:27:15.753Z,8.60
2023-02-27T06:30:42.998Z,8.50
2023-02-27T06:34:11.254Z,10.20
2023-02-27T06:37:38.532Z,8.10
2023-02-27T06:41:05.601Z,8.00
2023-02-27T06:44:32.177Z,7.50
2023-02-27T06:47:59.711Z,6.40
2023-02-27T06:51:26.747Z,5.40
2023-02-27T06:54:54.899Z,5.00
2023-02-27T06:58:21.896Z,4.40
2023-02-27T07:01:51.631Z,4.60
2023-02-27T07:05:18.471Z,5.60
2023-02-27T07:09:00.917Z,5.20
2023-02-27T07:12:32.906Z,4.70
2023-02-27T07:15:59.862Z,3.10
2023-02-27T07:19:28.232Z,3.40
2023-02-27T07:22:54.788Z,2.90
2023-02-27T07:26:21.445Z,3.10
2023-02-27T07:29:48.508Z,4.00
2023-02-27T07:33:14.997Z,4.30
2023-02-27T07:36:42.305Z,5.10
2023-02-27T07:40:12.123Z,4.80
2023-02-27T07:43:39.003Z,4.40
2023-02-27T07:47:06.997Z,4.00
2023-02-27T07:50:34.053Z,3.90
2023-02-27T07:54:02.507Z,4.30
2023-02-27T07:57:30.312Z,5.10
2023-02-27T08:00:58.528Z,4.50
2023-02-27T08:04:25.544Z,4.50
2023-02-27T08:07:53.218Z,4.60
2023-02-27T08:11:20.121Z,4.20
2023-02-27T08:14:47.168Z,4.40
2023-02-27T08:18:14.327Z,4.60
2023-02-27T08:21:41.017Z,3.90
2023-02-27T08:25:11.134Z,4.00
2023-02-27T08:28:38.005Z,4.20
2023-02-27T08:32:05.950Z,4.10
2023-02-27T08:35:32.951Z,3.90
2023-02-27T08:38:59.754Z,3.20
2023-02-27T08:42:27.040Z,4.50
2023-02-27T08:45:54.266Z,5.40
2023-02-27T08:49:23.162Z,4.00
2023-02-27T08:52:50.356Z,4.30
2023-02-27T08:56:17.144Z,4.70
2023-02-27T08:59:43.765Z,4.80
2023-02-27T09:03:11.607Z,7.00
2023-02-27T09:06:39.335Z,5.30
2023-02-27T09:10:07.539Z,4.70
2023-02-27T09:13:34.831Z,3.20
2023-02-27T09:17:01.617Z,3.50
2023-02-27T09:20:28.762Z,3.00
2023-02-27T09:24:02.634Z,2.60
2023-02-27T09:27:34.001Z,2.80
2023-02-27T09:31:03.506Z,3.00
2023-02-27T09:34:31.079Z,3.00
2023-02-27T09:38:00.737Z,2.90
2023-02-27T09:41:43.660Z,3.00
2023-02-27T09:45:19.828Z,3.20
2023-02-27T09:48:52.822Z,2.90
2023-02-27T09:52:20.127Z,3.00
2023-02-27T09:55:48.514Z,3.50
2023-02-27T09:59:27.151Z,2.80
2023-02-27T10:03:02.440Z,4.10
2023-02-27T10:06:35.685Z,3.40
2023-02-27T10:10:20.712Z,2.40
2023-02-27T10:14:00.757Z,2.80
2023-02-27T10:17:30.651Z,2.00
2023-02-27T10:21:00.614Z,2.40
2023-02-27T10:24:32.072Z,2.10
2023-02-27T10:28:04.219Z,0.80
2023-02-27T10:31:36.272Z,1.20
2023-02-27T10:35:12.526Z,1.60
2023-02-27T10:38:44.682Z,1.70
2023-02-27T10:42:13.868Z,2.10
2023-02-27T10:45:40.531Z,1.90
2023-02-27T10:49:19.066Z,1.70
2023-02-27T10:52:53.930Z,1.50
2023-02-27T10:56:26.953Z,1.50
2023-02-27T11:03:26.684Z,1.60
2023-02-27T11:06:56.327Z,4.40
2023-02-27T11:10:25.557Z,2.50
2023-02-27T11:13:52.267Z,1.60
2023-02-27T11:17:28.889Z,1.60
2023-02-27T11:20:56.919Z,1.30
2023-02-27T11:24:23.616Z,1.70
2023-02-27T11:27:52.381Z,2.00
2023-02-27T11:31:23.053Z,6.70
2023-02-27T11:34:53.638Z,5.40
2023-02-27T11:38:24.983Z,2.80
2023-02-27T11:41:53.053Z,1.90
2023-02-27T11:46:04.905Z,2.30
2023-02-27T11:49:35.678Z,1.80
2023-02-27T11:53:12.623Z,2.00
2023-02-27T11:56:43.586Z,2.90
2023-02-27T12:00:21.891Z,1.80
2023-02-27T12:03:52.724Z,3.90
2023-02-27T12:07:24.592Z,7.40
2023-02-27T12:11:12.343Z,3.00
2023-02-27T12:14:48.909Z,4.70
2023-02-27T12:18:23.312Z,4.20
2023-02-27T12:21:55.384Z,1.50
2023-02-27T12:25:33.600Z,7.50
2023-02-27T12:29:05.327Z,10.90
2023-02-27T12:32:43.142Z,2.00
2023-02-27T12:36:14.266Z,1.40
2023-02-27T12:39:43.594Z,2.90
2023-02-27T12:43:24.578Z,4.20
2023-02-27T12:47:02.166Z,3.10
2023-02-27T12:50:36.772Z,1.90
2023-02-27T12:54:24.966Z,2.50
2023-02-27T12:58:09.517Z,3.20
2023-02-27T13:01:47.187Z,3.00
2023-02-27T13:05:28.428Z,2.50
2023-02-27T13:09:09.084Z,2.50
2023-02-27T13:12:43.120Z,2.10
2023-02-27T13:16:15.464Z,2.40
2023-02-27T13:19:48.752Z,2.00
2023-02-27T13:23:20.625Z,3.40
2023-02-27T13:26:51.968Z,2.80
2023-02-27T13:30:28.318Z,1.70
2023-02-27T13:34:04.637Z,1.10
2023-02-27T13:37:54.046Z,1.00
2023-02-27T13:41:40.904Z,1.80
2023-02-27T13:45:29.824Z,1.00
2023-02-27T13:48:57.437Z,1.10
2023-02-27T13:52:33.066Z,1.00
2023-02-27T13:56:23.252Z,1.00
2023-02-27T13:59:58.403Z,1.00
2023-02-27T14:03:27.992Z,1.40
2023-02-27T14:07:01.325Z,1.30
2023-02-27T14:10:31.578Z,1.40
2023-02-27T14:14:09.189Z,1.20
2023-02-27T14:17:46.644Z,1.10
2023-02-27T14:21:13.692Z,1.10
2023-02-27T14:24:52.793Z,1.60
2023-02-27T14:28:28.493Z,1.20
2023-02-27T14:31:57.607Z,1.50
2023-02-27T14:35:25.695Z,1.50
2023-02-27T14:38:55.785Z,1.50
2023-02-27T14:42:46.181Z,1.40
2023-02-27T14:46:24.272Z,1.60
2023-02-27T14:49:52.983Z,1.70
2023-02-27T14:53:28.764Z,1.70
2023-02-27T14:57:00.983Z,2.70
2023-02-27T15:00:41.189Z,1.60
2023-02-27T15:04:17.169Z,1.30
2023-02-27T15:07:49.465Z,1.60
2023-02-27T15:11:21.302Z,2.60
2023-02-27T15:14:53.933Z,1.90
2023-02-27T15:18:24.516Z,1.40
2023-02-27T15:21:54.168Z,1.70
2023-02-27T15:25:47.613Z,2.30
2023-02-27T15:29:25.170Z,2.80
2023-02-27T15:32:55.638Z,3.50
2023-02-27T15:36:28.181Z,7.40
2023-02-27T15:39:56.693Z,4.80
2023-02-27T15:43:27.760Z,3.20
2023-02-27T15:46:56.036Z,6.40
2023-02-27T15:50:33.869Z,7.80
2023-02-27T15:54:02.114Z,5.60
2023-02-27T15:57:30.817Z,5.20
2023-02-27T16:01:02.727Z,8.20
2023-02-27T16:04:31.441Z,9.30
2023-02-27T16:07:58.079Z,8.60
2023-02-27T16:11:27.149Z,7.70
2023-02-27T16:14:55.024Z,7.10
2023-02-27T16:18:33.128Z,5.50
2023-02-27T16:22:20.070Z,4.70
2023-02-27T16:26:04.642Z,6.10
2023-02-27T16:29:37.178Z,21.50
2023-02-27T16:33:06.320Z,18.80
2023-02-27T16:36:35.042Z,14.70
2023-02-27T16:40:01.856Z,17.70
2023-02-27T16:43:29.580Z,11.70
2023-02-27T16:46:59.446Z,16.80
2023-02-27T16:50:33.250Z,23.50
2023-02-27T16:54:01.121Z,15.60
2023-02-27T16:57:28.458Z,12.10
2023-02-27T17:00:56.061Z,9.40
2023-02-27T17:04:25.826Z,9.50
2023-02-27T17:07:54.910Z,12.00
2023-02-27T17:11:21.544Z,13.90
2023-02-27T17:14:48.184Z,13.30
2023-02-27T17:18:15.207Z,11.10
2023-02-27T17:21:42.581Z,13.10
2023-02-27T17:25:11.370Z,12.70
2023-02-27T17:28:40.875Z,15.80
2023-02-27T17:32:08.156Z,14.00
2023-02-27T17:35:35.117Z,14.30
2023-02-27T17:39:03.873Z,15.90
2023-02-27T17:42:30.861Z,11.90
2023-02-27T17:45:58.018Z,10.30
2023-02-27T17:49:24.787Z,11.90
2023-02-27T17:52:51.574Z,18.20
2023-02-27T17:56:18.686Z,21.40
2023-02-27T17:59:45.930Z,24.40
2023-02-27T18:03:13.822Z,22.90
2023-02-27T18:06:41.185Z,28.80
2023-02-27T18:10:11.292Z,30.20
2023-02-27T18:13:39.061Z,26.70
2023-02-27T18:17:12.337Z,25.40
2023-02-27T18:20:40.838Z,27.80
2023-02-27T18:24:09.773Z,25.40
2023-02-27T18:27:36.656Z,22.90
2023-02-27T18:31:08.968Z,20.80
2023-02-27T18:34:36.300Z,17.70
2023-02-27T18:38:04.188Z,16.90
2023-02-27T18:41:33.386Z,18.20
2023-02-27T18:45:00.347Z,19.20
2023-02-27T18:48:35.014Z,19.00
2023-02-27T18:52:03.579Z,21.10
2023-02-27T18:55:32.559Z,24.60
2023-02-27T18:59:05.479Z,21.40
2023-02-27T19:06:23.679Z,16.70
2023-02-27T19:09:51.958Z,19.60
2023-02-27T19:13:19.309Z,18.70
2023-02-27T19:16:47.322Z,17.90
2023-02-27T19:20:17.429Z,16.40
2023-02-27T19:23:44.816Z,18.30
2023-02-27T19:27:11.906Z,20.20
2023-02-27T19:30:41.457Z,18.40
2023-02-27T19:34:08.603Z,22.40
2023-02-27T19:37:35.830Z,25.90
2023-02-27T19:41:04.976Z,31.00
2023-02-27T19:44:32.263Z,30.30
2023-02-27T19:47:59.255Z,24.20
2023-02-27T19:51:27.110Z,18.30
2023-02-27T19:54:56.800Z,21.20
2023-02-27T19:58:23.733Z,26.40
2023-02-27T20:01:50.412Z,33.50
2023-02-27T20:05:19.559Z,41.90
2023-02-27T20:08:46.640Z,49.20
2023-02-27T20:12:14.464Z,33.50
2023-02-27T20:15:42.610Z,43.00
2023-02-27T20:19:11.075Z,44.20
2023-02-27T20:22:38.676Z,38.10
2023-02-27T20:26:24.690Z,35.40
2023-02-27T20:29:55.303Z,42.50
2023-02-27T20:33:22.627Z,40.90
2023-02-27T20:36:54.568Z,35.80
2023-02-27T20:40:23.116Z,37.00
2023-02-27T20:43:50.391Z,33.80
2023-02-27T20:47:17.647Z,32.00
2023-02-27T20:50:44.611Z,31.50
2023-02-27T20:54:16.811Z,44.10
2023-02-27T20:57:43.581Z,48.70
2023-02-27T21:01:13.553Z,43.00
2023-02-27T21:04:43.787Z,33.10
2023-02-27T21:08:10.832Z,34.30
2023-02-27T21:11:38.176Z,33.90
2023-02-27T21:15:05.980Z,35.70
2023-02-27T21:18:33.796Z,36.20
2023-02-27T21:22:01.816Z,32.60
2023-02-27T21:25:29.597Z,31.10
2023-02-27T21:29:05.362Z,34.60
2023-02-27T21:32:34.238Z,35.50
2023-02-27T21:36:01.043Z,36.60
2023-02-27T21:39:34.509Z,38.00
2023-02-27T21:43:01.540Z,37.80
2023-02-27T21:46:29.429Z,38.90
2023-02-27T21:49:59.599Z,39.80
2023-02-27T21:53:27.843Z,43.90
2023-02-27T21:56:54.882Z,46.60
2023-02-27T22:00:28.897Z,46.60
2023-02-27T22:03:59.414Z,40.40
2023-02-27T22:07:29.368Z,39.80
2023-02-27T22:11:01.356Z,40.60
2023-02-27T22:14:28.789Z,38.10
2023-02-27T22:17:57.078Z,44.70
2023-02-27T22:21:27.864Z,51.20
2023-02-27T22:28:23.271Z,53.10
2023-02-27T22:31:50.055Z,52.10
2023-02-27T22:35:19.290Z,43.90
2023-02-27T22:38:46.591Z,46.70
2023-02-27T22:42:16.751Z,48.10
2023-02-27T22:45:50.353Z,48.50
2023-02-27T22:49:20.453Z,47.90
2023-02-27T22:52:48.006Z,46.10
2023-02-27T22:56:17.324Z,48.40
2023-02-27T22:59:47.453Z,46.00
2023-02-27T23:03:14.711Z,46.70
2023-02-27T23:06:44.161Z,98.30
2023-02-27T23:10:13.651Z,56.70
2023-02-27T23:13:41.490Z,58.40
2023-02-27T23:17:09.420Z,53.10
2023-02-27T23:20:43.133Z,54.70
2023-02-27T23:24:17.627Z,49.00
2023-02-27T23:27:45.487Z,45.10
2023-02-27T23:31:13.831Z,44.60
2023-02-27T23:34:49.556Z,60.10
2023-02-27T23:38:17.207Z,72.30
2023-02-27T23:41:43.787Z,63.00
2023-02-27T23:45:30.256Z,46.80
2023-02-27T23:48:57.814Z,55.80
2023-02-27T23:52:24.549Z,46.20
2023-02-27T23:55:52.147Z,40.00
2023-02-27T23:59:19.019Z,46.60
